Time;durP1;ratioP1;P1;durP2;ratioP2;P2;SDS_P1;SDS_P2;PMS_P1;PMS_P2;Temp;Humidity;BMP_temperature;BMP_pressure;BME280_temperature;BME280_humidity;BME280_pressure;Samples;Min_cycle;Max_cycle;Signal;HPM_P1;HPM_P2
2022/04/30 00:00:35;;;;;;;18.60;14.02;;;13.40;79.10;;;;;;5014935;28;20105;-56
2022/04/30 00:03:01;;;;;;;19.60;13.90;;;13.20;79.70;;;;;;4998509;28;20040;-57
2022/04/30 00:05:33;;;;;;;21.05;15.40;;;13.20;79.50;;;;;;5014591;28;20486;-55
2022/04/30 00:07:59;;;;;;;22.33;13.95;;;13.20;80.20;;;;;;5033440;28;20124;-53
2022/04/30 00:10:25;;;;;;;15.93;13.43;;;13.10;80.20;;;;;;5014296;28;20049;-51
2022/04/30 00:12:51;;;;;;;15.98;12.65;;;13.10;80.30;;;;;;5033521;28;20044;-57
2022/04/30 00:15:16;;;;;;;19.20;13.32;;;13.10;80.60;;;;;;5031817;28;20067;-54
2022/04/30 00:17:42;;;;;;;17.08;12.82;;;13.10;81.00;;;;;;5033371;28;20033;-52
2022/04/30 00:20:08;;;;;;;16.77;12.85;;;13.00;81.70;;;;;;5033428;28;20037;-55
2022/04/30 00:22:34;;;;;;;16.13;13.13;;;12.70;83.70;;;;;;5033550;28;20030;-54
2022/04/30 00:25:00;;;;;;;15.18;12.48;;;12.60;83.70;;;;;;5033556;28;20524;-53
2022/04/30 00:27:26;;;;;;;19.00;12.38;;;12.70;83.70;;;;;;5033113;28;20073;-55
2022/04/30 00:29:52;;;;;;;17.63;13.77;;;12.50;84.30;;;;;;5032515;28;20405;-57
2022/04/30 00:32:18;;;;;;;18.88;13.38;;;12.50;84.70;;;;;;5032722;28;20172;-52
2022/04/30 00:34:43;;;;;;;17.73;11.90;;;12.50;84.70;;;;;;5032646;28;20760;-55
2022/04/30 00:37:09;;;;;;;15.95;12.80;;;12.50;85.50;;;;;;5032162;28;20037;-54
2022/04/30 00:39:35;;;;;;;17.98;13.13;;;12.50;85.50;;;;;;5032702;28;20034;-55
2022/04/30 00:42:01;;;;;;;19.33;11.95;;;12.20;86.80;;;;;;5014948;28;20504;-53
2022/04/30 00:44:27;;;;;;;19.52;12.15;;;12.10;87.20;;;;;;5032287;28;20036;-54
2022/04/30 00:46:53;;;;;;;18.80;12.30;;;12.00;88.00;;;;;;5031967;28;20017;-53
2022/04/30 00:49:19;;;;;;;19.08;12.68;;;12.00;87.90;;;;;;5015260;28;20052;-55
2022/04/30 00:51:45;;;;;;;16.00;11.32;;;11.90;88.10;;;;;;5032036;28;20037;-55
2022/04/30 00:54:13;;;;;;;15.85;11.10;;;11.90;88.30;;;;;;5032254;28;20017;-56
2022/04/30 00:56:44;;;;;;;15.57;10.75;;;11.90;88.50;;;;;;5031684;28;20416;-55
2022/04/30 00:59:16;;;;;;;17.38;10.60;;;12.00;88.20;;;;;;5032358;28;20038;-57
2022/04/30 01:01:42;;;;;;;16.45;10.90;;;11.90;88.70;;;;;;5032498;28;20112;-55
2022/04/30 01:04:08;;;;;;;16.33;10.75;;;11.80;89.10;;;;;;5031628;28;20462;-55
2022/04/30 01:06:50;;;;;;;13.68;9.85;;;11.70;89.20;;;;;;5031357;28;20117;-53
2022/04/30 01:09:25;;;;;;;15.05;10.98;;;11.70;89.80;;;;;;5024754;28;20029;-55
2022/04/30 01:11:55;;;;;;;;;;;11.60;90.00;;;;;;5031076;28;20032;-53
2022/04/30 01:14:21;;;;;;;19.75;10.77;;;11.70;89.80;;;;;;5030942;28;19913;-54
2022/04/30 01:16:47;;;;;;;14.45;9.63;;;11.70;89.90;;;;;;5025365;28;20040;-55
2022/04/30 01:19:20;;;;;;;18.58;9.10;;;11.40;90.40;;;;;;5026802;28;20037;-54
2022/04/30 01:21:56;;;;;;;14.85;9.55;;;11.30;90.80;;;;;;5028663;28;20493;-54
2022/04/30 01:24:23;;;;;;;14.93;9.52;;;11.20;91.00;;;;;;5007082;28;20041;-56
2022/04/30 01:26:51;;;;;;;17.02;9.02;;;11.20;91.10;;;;;;5025128;28;20033;-53
2022/04/30 01:29:18;;;;;;;13.77;8.73;;;11.10;91.20;;;;;;5026648;28;20029;-54
2022/04/30 01:37:23;;;;;;;16.02;8.93;;;11.10;91.40;;;;;;5038891;28;20030;-56
2022/04/30 01:39:54;;;;;;;15.10;9.13;;;11.00;91.60;;;;;;5037891;28;20234;-56
2022/04/30 01:42:19;;;;;;;15.38;8.93;;;10.90;91.80;;;;;;5040839;28;20464;-52
2022/04/30 01:44:46;;;;;;;11.27;8.93;;;10.90;91.90;;;;;;5037752;28;20099;-54
2022/04/30 01:47:14;;;;;;;21.83;9.80;;;10.90;91.80;;;;;;5036835;28;20033;-51
2022/04/30 01:49:39;;;;;;;14.02;8.18;;;10.90;92.00;;;;;;5036175;28;20128;-51
2022/04/30 01:52:09;;;;;;;12.98;8.90;;;10.80;92.00;;;;;;5036749;28;20097;-50
2022/04/30 01:54:36;;;;;;;12.93;8.93;;;10.90;92.00;;;;;;5036284;28;20029;-55
2022/04/30 01:57:02;;;;;;;12.60;8.75;;;10.80;92.40;;;;;;5025409;28;20124;-54
2022/04/30 01:59:28;;;;;;;13.07;9.13;;;10.70;92.50;;;;;;5030357;28;20037;-53
2022/04/30 02:01:55;;;;;;;20.40;10.45;;;10.70;92.60;;;;;;5027925;28;20137;-52
2022/04/30 02:04:21;;;;;;;15.85;9.30;;;10.70;92.60;;;;;;5028115;28;20057;-51
2022/04/30 02:06:47;;;;;;;15.55;8.93;;;10.90;92.50;;;;;;5027929;28;20026;-55
2022/04/30 02:09:14;;;;;;;14.57;8.88;;;10.80;92.50;;;;;;5010726;28;20038;-55
2022/04/30 02:11:41;;;;;;;15.55;9.20;;;10.70;92.80;;;;;;5028438;28;20041;-53
2022/04/30 02:14:10;;;;;;;16.15;9.95;;;10.60;92.90;;;;;;5026023;28;20033;-51
2022/04/30 02:16:39;;;;;;;17.05;9.60;;;10.60;93.00;;;;;;5021723;28;20116;-52
2022/04/30 02:19:07;;;;;;;12.88;9.25;;;10.70;93.00;;;;;;5027559;28;20029;-51
2022/04/30 02:21:34;;;;;;;17.40;10.02;;;10.70;93.10;;;;;;5027130;28;20033;-53
2022/04/30 02:24:01;;;;;;;13.77;9.73;;;10.50;93.30;;;;;;5027232;28;20032;-51
2022/04/30 02:26:27;;;;;;;16.42;9.85;;;10.50;93.50;;;;;;5026993;28;20034;-53
2022/04/30 02:28:57;;;;;;;16.13;10.15;;;10.50;93.60;;;;;;5027370;28;20046;-53
2022/04/30 02:31:25;;;;;;;16.13;9.75;;;10.50;93.60;;;;;;5027061;28;20037;-55
2022/04/30 02:33:55;;;;;;;14.23;9.68;;;10.60;93.80;;;;;;5027208;28;20099;-51
2022/04/30 02:36:25;;;;;;;12.75;9.57;;;10.50;93.90;;;;;;5026836;28;20048;-53
2022/04/30 02:38:59;;;;;;;18.88;9.95;;;10.40;94.10;;;;;;5025913;28;20402;-51
2022/04/30 02:41:24;;;;;;;14.68;10.32;;;10.40;94.10;;;;;;5024425;28;20204;-52
2022/04/30 02:43:51;;;;;;;21.40;10.95;;;10.30;94.40;;;;;;5033483;28;20069;-52
2022/04/30 02:46:17;;;;;;;17.75;10.43;;;10.30;94.60;;;;;;5033436;28;20029;-50
2022/04/30 02:48:43;;;;;;;19.10;10.88;;;10.30;94.60;;;;;;5013573;28;20066;-51
2022/04/30 02:51:10;;;;;;;14.40;10.30;;;10.30;94.70;;;;;;5014332;28;20026;-53
2022/04/30 02:53:37;;;;;;;12.40;10.13;;;10.30;94.80;;;;;;5013782;28;20038;-51
2022/04/30 02:56:06;;;;;;;15.52;10.63;;;10.20;94.80;;;;;;5013591;28;20046;-52
2022/04/30 03:01:21;;;;;;;16.27;10.82;;;10.10;95.00;;;;;;4994566;28;20037;-55
2022/04/30 03:03:48;;;;;;;21.42;11.07;;;10.20;95.00;;;;;;5012860;28;20102;-53
2022/04/30 03:06:14;;;;;;;19.15;11.23;;;10.10;95.50;;;;;;5013187;28;20615;-56
2022/04/30 03:08:40;;;;;;;15.23;10.65;;;10.10;95.40;;;;;;5013622;28;20022;-54
2022/04/30 03:11:07;;;;;;;15.15;10.77;;;10.10;95.30;;;;;;5013729;28;20065;-52
2022/04/30 03:13:35;;;;;;;15.60;10.98;;;10.00;95.50;;;;;;5013279;28;20072;-54
2022/04/30 03:21:41;;;;;;;17.05;11.05;;;10.00;95.80;;;;;;5013157;28;20531;-52
2022/04/30 03:21:47;;;;;;;17.35;11.43;;;9.90;96.10;;;;;;5013254;28;20034;-53
2022/04/30 03:24:18;;;;;;;17.55;11.88;;;10.00;96.10;;;;;;5013498;28;20046;-54
2022/04/30 03:26:48;;;;;;;15.40;11.18;;;9.90;96.10;;;;;;5013227;28;20042;-52
2022/04/30 03:29:18;;;;;;;19.83;12.00;;;9.90;96.10;;;;;;5022459;28;20034;-55
2022/04/30 03:31:44;;;;;;;19.08;11.70;;;9.80;96.50;;;;;;5012798;28;20068;-55
2022/04/30 03:34:11;;;;;;;15.73;11.25;;;9.80;96.40;;;;;;5013115;28;20443;-52
2022/04/30 03:36:36;;;;;;;16.38;11.40;;;9.80;96.60;;;;;;5012920;28;20034;-51
2022/04/30 03:39:03;;;;;;;16.65;11.40;;;9.90;96.60;;;;;;5012721;28;20155;-53
2022/04/30 03:41:29;;;;;;;19.65;12.40;;;9.90;96.60;;;;;;5013705;28;20536;-52
2022/04/30 03:43:55;;;;;;;15.95;11.02;;;9.90;96.60;;;;;;5032752;28;20033;-52
2022/04/30 03:46:20;;;;;;;15.65;11.30;;;9.80;96.90;;;;;;5017225;28;20049;-53
2022/04/30 03:48:51;;;;;;;15.85;11.85;;;9.60;97.20;;;;;;5013138;28;20112;-52
2022/04/30 03:51:17;;;;;;;15.57;11.63;;;9.50;97.50;;;;;;5012830;28;20034;-51
2022/04/30 03:53:43;;;;;;;21.98;11.63;;;9.60;97.50;;;;;;5011903;28;20065;-49
2022/04/30 03:56:08;;;;;;;15.48;11.55;;;9.60;97.70;;;;;;5012203;28;20439;-49
2022/04/30 03:58:34;;;;;;;15.98;12.68;;;9.60;97.80;;;;;;5012739;28;20030;-50
2022/04/30 04:01:00;;;;;;;18.40;11.77;;;9.50;98.00;;;;;;5012689;28;20083;-50
2022/04/30 04:03:25;;;;;;;19.00;11.57;;;9.60;97.90;;;;;;5012467;28;20042;-52
2022/04/30 04:05:51;;;;;;;15.48;11.60;;;9.60;97.80;;;;;;5011906;28;20038;-51
2022/04/30 04:08:17;;;;;;;15.00;11.48;;;9.70;97.80;;;;;;5012349;28;20030;-53
2022/04/30 04:10:43;;;;;;;15.48;11.95;;;9.70;97.70;;;;;;5013670;28;20441;-55
2022/04/30 04:18:37;;;;;;;17.77;13.00;;;9.40;98.40;;;;;;5012377;28;20026;-50
2022/04/30 04:21:03;;;;;;;15.25;10.98;;;9.40;98.70;;;;;;5011839;28;20104;-50
2022/04/30 04:25:58;;;;;;;14.45;11.02;;;9.40;98.60;;;;;;5011568;28;20397;-51
2022/04/30 04:26:15;;;;;;;19.83;12.07;;;9.40;98.70;;;;;;5011343;28;20509;-52
2022/04/30 04:28:40;;;;;;;16.67;12.43;;;9.20;99.10;;;;;;5011869;28;20088;-53
2022/04/30 04:31:06;;;;;;;21.60;12.00;;;9.40;98.90;;;;;;5011656;28;20026;-53
2022/04/30 04:33:31;;;;;;;21.30;13.90;;;9.40;99.00;;;;;;5012193;28;20486;-50
2022/04/30 04:35:57;;;;;;;17.67;12.23;;;9.30;99.00;;;;;;5012016;28;20113;-51
2022/04/30 04:38:22;;;;;;;13.75;11.65;;;9.40;99.00;;;;;;5011229;28;20065;-53
2022/04/30 04:40:48;;;;;;;19.67;12.02;;;9.40;98.80;;;;;;5011584;28;20622;-51
2022/04/30 04:43:13;;;;;;;16.08;11.25;;;9.40;98.70;;;;;;4993864;28;20703;-52
2022/04/30 04:45:40;;;;;;;17.00;11.60;;;9.40;98.90;;;;;;5011907;28;20026;-51
2022/04/30 04:48:06;;;;;;;16.27;11.23;;;9.20;99.30;;;;;;5011447;28;20486;-48
2022/04/30 04:50:31;;;;;;;15.40;10.60;;;9.20;99.50;;;;;;5011957;28;20045;-51
2022/04/30 04:52:57;;;;;;;18.02;10.98;;;9.30;99.20;;;;;;5011648;28;20030;-52
2022/04/30 04:55:22;;;;;;;18.00;10.88;;;9.40;99.00;;;;;;5011563;28;20091;-53
2022/04/30 04:57:48;;;;;;;17.23;11.75;;;9.30;99.20;;;;;;5011694;28;20033;-50
2022/04/30 05:00:14;;;;;;;14.20;10.70;;;9.40;99.20;;;;;;5011090;28;20053;-54
2022/04/30 05:02:39;;;;;;;13.90;10.85;;;9.50;98.70;;;;;;5011705;28;20064;-52
2022/04/30 05:05:06;;;;;;;19.00;11.32;;;9.30;98.80;;;;;;5011013;28;20502;-51
2022/04/30 05:07:31;;;;;;;16.67;10.73;;;9.30;99.00;;;;;;5011769;28;20665;-51
2022/04/30 05:09:57;;;;;;;17.48;10.75;;;9.40;98.90;;;;;;5008845;28;20172;-53
2022/04/30 05:12:22;;;;;;;15.73;10.45;;;9.30;99.10;;;;;;5011593;28;20037;-49
2022/04/30 05:14:48;;;;;;;20.05;11.45;;;9.40;98.90;;;;;;5011160;28;20505;-52
2022/04/30 05:17:14;;;;;;;17.52;10.50;;;9.30;99.20;;;;;;5010565;28;20410;-49
2022/04/30 05:19:40;;;;;;;18.00;10.65;;;9.50;98.90;;;;;;5010858;28;20026;-54
2022/04/30 05:22:06;;;;;;;16.95;10.77;;;9.40;99.00;;;;;;5011053;28;20018;-51
2022/04/30 05:24:32;;;;;;;16.35;10.15;;;9.40;99.10;;;;;;5011072;28;20118;-48
2022/04/30 05:26:58;;;;;;;16.17;10.98;;;9.40;98.90;;;;;;5010850;28;20109;-54
2022/04/30 05:29:23;;;;;;;13.93;10.57;;;9.40;98.90;;;;;;5010939;28;20044;-54
2022/04/30 05:31:49;;;;;;;17.50;11.18;;;9.40;98.90;;;;;;5011323;28;20475;-52
2022/04/30 05:34:14;;;;;;;14.75;10.88;;;9.40;98.90;;;;;;5010500;28;20442;-55
2022/04/30 05:36:40;;;;;;;14.15;10.45;;;9.40;98.80;;;;;;5009770;28;20034;-49
2022/04/30 05:39:05;;;;;;;19.58;10.65;;;9.50;98.80;;;;;;5010816;28;20119;-53
2022/04/30 05:41:31;;;;;;;14.57;10.43;;;9.50;98.90;;;;;;5010694;28;20026;-51
2022/04/30 05:43:57;;;;;;;16.27;10.73;;;9.50;98.70;;;;;;5029528;28;20042;-50
2022/04/30 05:46:23;;;;;;;14.68;10.70;;;9.50;98.60;;;;;;5010844;28;20038;-52
2022/04/30 05:48:48;;;;;;;16.63;10.35;;;9.50;98.60;;;;;;5011608;28;20034;-54
2022/04/30 05:51:14;;;;;;;15.65;10.68;;;9.60;98.60;;;;;;5010986;28;20049;-55
2022/04/30 05:53:39;;;;;;;15.38;10.20;;;9.70;98.40;;;;;;5007789;28;20128;-55
2022/04/30 05:56:06;;;;;;;11.70;9.60;;;9.60;98.60;;;;;;5010177;28;20050;-53
2022/04/30 05:58:31;;;;;;;18.38;9.60;;;9.60;98.40;;;;;;5011287;28;20482;-55
2022/04/30 06:00:57;;;;;;;15.55;10.80;;;9.60;98.30;;;;;;5010768;28;20161;-54
2022/04/30 06:03:23;;;;;;;16.35;10.35;;;9.50;98.50;;;;;;5011255;28;20092;-53
2022/04/30 06:05:48;;;;;;;13.45;10.27;;;9.60;98.30;;;;;;5009433;28;20053;-52
2022/04/30 06:08:14;;;;;;;15.27;9.77;;;9.60;98.40;;;;;;5010906;28;20034;-52
2022/04/30 06:10:39;;;;;;;14.95;10.27;;;9.70;98.10;;;;;;5010862;28;20040;-53
2022/04/30 06:13:05;;;;;;;14.68;9.57;;;9.70;98.10;;;;;;5011208;28;20045;-49
2022/04/30 06:15:30;;;;;;;14.77;9.70;;;9.80;98.00;;;;;;5010162;28;20034;-56
2022/04/30 06:17:56;;;;;;;21.23;10.35;;;9.80;97.50;;;;;;5013368;28;20058;-53
2022/04/30 06:20:22;;;;;;;15.35;10.10;;;9.70;97.70;;;;;;5014983;28;20038;-50
2022/04/30 06:22:48;;;;;;;17.08;10.57;;;9.70;97.80;;;;;;5014567;28;20041;-54
2022/04/30 06:25:13;;;;;;;19.52;10.07;;;9.80;97.60;;;;;;5012726;28;20037;-54
2022/04/30 06:27:39;;;;;;;13.80;10.63;;;9.70;97.70;;;;;;5014541;28;20088;-52
2022/04/30 06:30:07;;;;;;;15.50;10.27;;;9.60;97.80;;;;;;5014897;28;20030;-55
2022/04/30 06:32:33;;;;;;;14.65;9.77;;;9.60;97.70;;;;;;5013831;28;20022;-53
2022/04/30 06:34:59;;;;;;;19.33;10.45;;;9.60;97.90;;;;;;5014466;28;20034;-52
2022/04/30 06:37:24;;;;;;;13.07;9.70;;;9.80;97.50;;;;;;5011770;28;20027;-54
2022/04/30 06:39:51;;;;;;;18.48;10.07;;;9.80;97.40;;;;;;5012976;28;20046;-49
2022/04/30 06:42:16;;;;;;;13.55;9.90;;;9.80;97.20;;;;;;5020071;28;20041;-51
2022/04/30 06:44:42;;;;;;;13.85;9.95;;;9.70;97.30;;;;;;5021856;28;20397;-53
2022/04/30 06:47:08;;;;;;;12.98;9.63;;;9.70;97.40;;;;;;5012728;28;20049;-53
2022/04/30 06:49:33;;;;;;;12.80;9.70;;;9.70;97.80;;;;;;5011735;28;20045;-55
2022/04/30 06:51:59;;;;;;;15.57;9.70;;;9.70;97.60;;;;;;5013531;28;20026;-53
2022/04/30 06:57:11;;;;;;;16.77;9.73;;;9.70;97.20;;;;;;5013572;28;20112;-55
2022/04/30 06:59:39;;;;;;;12.20;9.63;;;9.70;97.40;;;;;;5014353;28;20045;-51
2022/04/30 07:02:12;;;;;;;14.27;8.95;;;9.70;97.40;;;;;;5014190;28;20171;-56
2022/04/30 07:04:39;;;;;;;18.40;9.77;;;9.90;97.30;;;;;;5012870;28;20179;-51
2022/04/30 07:07:04;;;;;;;13.70;9.55;;;10.00;96.80;;;;;;5013717;28;20030;-55
2022/04/30 07:09:32;;;;;;;12.98;9.25;;;10.00;96.70;;;;;;5009850;28;20032;-56
2022/04/30 07:11:59;;;;;;;12.98;10.13;;;9.80;96.90;;;;;;5014056;28;20029;-52
2022/04/30 07:14:25;;;;;;;13.52;9.18;;;9.80;96.90;;;;;;5013308;28;20029;-53
2022/04/30 07:16:50;;;;;;;11.85;9.10;;;9.80;97.20;;;;;;5012027;28;20397;-52
2022/04/30 07:19:16;;;;;;;12.98;8.98;;;9.90;97.10;;;;;;5007755;28;20030;-52
2022/04/30 07:21:41;;;;;;;14.75;9.85;;;10.10;96.80;;;;;;5013674;28;20057;-53
2022/04/30 07:24:07;;;;;;;12.00;9.50;;;10.10;96.80;;;;;;5013681;28;20042;-55
2022/04/30 07:26:33;;;;;;;13.38;9.18;;;10.10;96.80;;;;;;5013129;28;20124;-56
2022/04/30 07:28:58;;;;;;;15.38;9.30;;;10.20;96.80;;;;;;5011567;28;20034;-57
2022/04/30 07:31:24;;;;;;;13.63;9.95;;;10.20;96.50;;;;;;5012955;28;20726;-54
2022/04/30 07:33:51;;;;;;;15.52;9.32;;;10.20;96.50;;;;;;5011382;28;20030;-51
2022/04/30 07:36:17;;;;;;;14.98;9.38;;;10.30;96.40;;;;;;5013289;28;20030;-53
2022/04/30 07:38:43;;;;;;;15.52;9.73;;;10.60;96.10;;;;;;5011329;28;20044;-53
2022/04/30 07:41:08;;;;;;;15.32;10.18;;;10.80;95.70;;;;;;5012831;28;20041;-51
2022/04/30 07:43:34;;;;;;;15.57;9.25;;;10.80;95.30;;;;;;5017104;28;20046;-53
2022/04/30 07:46:00;;;;;;;15.13;9.38;;;10.70;95.20;;;;;;5014169;28;20121;-55
2022/04/30 07:48:25;;;;;;;10.85;9.32;;;10.80;95.20;;;;;;5014986;28;20121;-57
2022/04/30 07:50:57;;;;;;;12.55;9.52;;;10.80;95.10;;;;;;5013983;28;20494;-50
2022/04/30 07:53:23;;;;;;;11.57;9.38;;;10.70;95.50;;;;;;5013096;28;20036;-56
2022/04/30 07:55:48;;;;;;;13.43;9.75;;;10.60;95.60;;;;;;5012460;28;20030;-55
2022/04/30 07:58:14;;;;;;;12.13;9.52;;;10.70;95.40;;;;;;5013054;28;20034;-52
2022/04/30 08:00:39;;;;;;;15.02;10.00;;;10.90;95.40;;;;;;5011558;28;20048;-54
2022/04/30 08:03:05;;;;;;;15.38;9.40;;;11.10;95.00;;;;;;5012245;28;20068;-51
2022/04/30 08:05:31;;;;;;;13.43;9.32;;;11.30;94.90;;;;;;5012423;28;20065;-50
2022/04/30 08:07:57;;;;;;;15.63;9.30;;;11.50;94.60;;;;;;5011970;28;20124;-51
2022/04/30 08:10:23;;;;;;;14.45;9.25;;;11.40;94.20;;;;;;5011570;28;20117;-53
2022/04/30 08:12:53;;;;;;;11.77;8.93;;;11.60;94.60;;;;;;5012078;28;20478;-54
2022/04/30 08:15:23;;;;;;;12.60;8.70;;;11.60;94.30;;;;;;5009969;28;20037;-55
2022/04/30 08:17:49;;;;;;;11.82;8.55;;;11.80;94.30;;;;;;5006146;28;20075;-55
2022/04/30 08:20:15;;;;;;;11.63;7.97;;;11.80;94.20;;;;;;5005648;28;20102;-54
2022/04/30 08:22:40;;;;;;;14.63;9.48;;;11.90;93.30;;;;;;5011944;28;20113;-53
2022/04/30 08:25:06;;;;;;;14.35;10.00;;;11.70;93.60;;;;;;5009112;28;20041;-53
2022/04/30 08:27:32;;;;;;;13.13;8.82;;;11.60;93.70;;;;;;5011788;28;20026;-53
2022/04/30 08:29:58;;;;;;;12.40;8.32;;;11.70;93.70;;;;;;5008559;28;20379;-54
2022/04/30 08:32:25;;;;;;;12.07;8.70;;;11.80;93.30;;;;;;5011620;28;20394;-55
2022/04/30 08:34:51;;;;;;;11.57;8.73;;;11.60;93.60;;;;;;5006332;28;20030;-52
2022/04/30 08:37:16;;;;;;;11.00;8.02;;;11.60;93.80;;;;;;5011543;28;20022;-55
2022/04/30 08:39:43;;;;;;;10.63;8.10;;;11.50;93.70;;;;;;5008381;28;20037;-56
2022/04/30 08:42:08;;;;;;;12.35;8.55;;;11.90;93.30;;;;;;5011960;28;20053;-54
2022/04/30 08:44:37;;;;;;;12.85;8.43;;;12.20;92.80;;;;;;5011597;28;20523;-55
2022/04/30 08:47:03;;;;;;;11.43;8.23;;;12.10;92.80;;;;;;5010214;28;20042;-57
2022/04/30 08:49:31;;;;;;;10.85;8.35;;;12.30;92.70;;;;;;5011321;28;20049;-55
2022/04/30 08:51:56;;;;;;;9.57;8.23;;;12.10;92.60;;;;;;5011290;28;20084;-54
2022/04/30 08:54:22;;;;;;;11.52;8.73;;;12.30;92.80;;;;;;5012541;28;20033;-53
2022/04/30 08:56:55;;;;;;;12.88;8.32;;;12.30;92.20;;;;;;5009579;28;20069;-52
2022/04/30 08:59:21;;;;;;;14.02;8.43;;;12.50;92.10;;;;;;4998303;28;20034;-50
2022/04/30 09:01:52;;;;;;;16.25;8.88;;;12.40;92.10;;;;;;5011081;28;20033;-53
2022/04/30 09:04:19;;;;;;;14.10;8.00;;;12.60;92.10;;;;;;5009896;28;20062;-52
2022/04/30 09:06:53;;;;;;;14.57;8.38;;;12.80;91.70;;;;;;5011150;28;20041;-51
2022/04/30 09:09:24;;;;;;;14.50;8.55;;;13.00;91.60;;;;;;5010327;28;20386;-52
2022/04/30 09:11:50;;;;;;;15.45;7.82;;;13.20;91.20;;;;;;5010580;28;20851;-54
2022/04/30 09:14:26;;;;;;;14.00;8.07;;;13.30;90.70;;;;;;5011150;28;20096;-50
2022/04/30 09:17:02;;;;;;;12.85;7.80;;;13.50;90.30;;;;;;5010487;28;20018;-51
2022/04/30 09:19:27;;;;;;;13.60;7.68;;;13.30;90.70;;;;;;5011737;28;20486;-54
2022/04/30 09:21:53;;;;;;;12.32;8.38;;;13.50;90.60;;;;;;5009743;28;20048;-48
2022/04/30 09:24:19;;;;;;;14.65;8.65;;;13.50;90.30;;;;;;5010048;28;20077;-56
2022/04/30 09:26:44;;;;;;;11.63;8.07;;;13.50;90.20;;;;;;5003400;28;20062;-54
2022/04/30 09:29:23;;;;;;;12.02;8.52;;;13.60;90.20;;;;;;5014799;28;20030;-57
2022/04/30 09:31:53;;;;;;;10.52;8.50;;;13.60;90.00;;;;;;5020055;28;20041;-53
2022/04/30 09:39:50;;;;;;;14.60;8.27;;;13.80;90.10;;;;;;5020049;28;20030;-51
2022/04/30 09:42:16;;;;;;;12.55;8.85;;;13.90;90.00;;;;;;5022265;28;20050;-53
2022/04/30 09:44:42;;;;;;;9.00;7.95;;;13.90;90.00;;;;;;5017218;28;20137;-57
2022/04/30 09:47:11;;;;;;;10.80;8.13;;;14.00;90.00;;;;;;5018194;28;20021;-57
2022/04/30 09:55:06;;;;;;;;;;;14.20;87.70;;;;;;5020723;28;20030;-54
2022/04/30 09:57:35;;;;;;;10.77;7.68;;;14.20;86.70;;;;;;5023473;28;19962;-56
2022/04/30 10:00:01;;;;;;;10.48;7.20;;;14.20;87.00;;;;;;5021528;28;20437;-52
2022/04/30 10:02:30;;;;;;;14.07;7.18;;;14.50;86.80;;;;;;5023936;28;20103;-51
2022/04/30 10:04:57;;;;;;;15.15;7.78;;;14.50;85.70;;;;;;5021436;28;20038;-51
2022/04/30 10:07:25;;;;;;;13.48;7.38;;;14.10;85.80;;;;;;5014459;28;20046;-51
2022/04/30 10:10:21;;;;;;;9.75;7.28;;;14.40;85.30;;;;;;5014122;28;20037;-53
2022/04/30 10:12:56;;;;;;;11.00;6.95;;;14.60;85.90;;;;;;5006026;28;20453;-53
2022/04/30 10:15:28;;;;;;;11.25;7.15;;;14.50;86.10;;;;;;5014026;28;20080;-54
2022/04/30 10:17:57;;;;;;;13.23;7.03;;;14.60;84.70;;;;;;5013647;28;20038;-49
2022/04/30 10:20:29;;;;;;;8.15;6.88;;;14.70;84.90;;;;;;5012761;28;20045;-51
2022/04/30 10:22:57;;;;;;;12.73;8.02;;;14.90;84.70;;;;;;5009422;28;20450;-53
2022/04/30 10:25:43;;;;;;;10.00;6.90;;;15.10;84.50;;;;;;5011884;28;20718;-57
2022/04/30 10:28:14;;;;;;;10.93;6.40;;;15.00;84.20;;;;;;5013700;28;20117;-53
2022/04/30 10:30:40;;;;;;;10.48;6.55;;;14.90;83.40;;;;;;5009558;28;20038;-52
2022/04/30 10:33:08;;;;;;;11.38;6.47;;;14.90;83.50;;;;;;5012932;28;20036;-53
2022/04/30 10:35:39;;;;;;;11.77;6.63;;;15.20;83.20;;;;;;5014017;28;20478;-53
2022/04/30 10:38:24;;;;;;;11.80;6.75;;;15.20;82.30;;;;;;5012794;28;20069;-60
2022/04/30 10:40:52;;;;;;;12.20;7.15;;;15.20;83.00;;;;;;5016251;28;20050;-53
2022/04/30 10:43:26;;;;;;;11.30;7.97;;;15.20;83.10;;;;;;5015613;28;20053;-48
2022/04/30 10:45:52;;;;;;;12.05;7.43;;;15.20;82.50;;;;;;5012557;28;20049;-52
2022/04/30 10:48:19;;;;;;;14.38;7.75;;;15.30;82.70;;;;;;5011753;28;20042;-57
2022/04/30 10:50:47;;;;;;;12.05;7.20;;;15.10;82.70;;;;;;5012490;28;20041;-51
2022/04/30 10:53:14;;;;;;;8.75;7.47;;;15.20;82.90;;;;;;5011924;28;20091;-53
2022/04/30 10:55:40;;;;;;;10.13;7.22;;;15.40;82.40;;;;;;5011823;28;20037;-53
2022/04/30 10:58:06;;;;;;;11.00;6.40;;;15.40;81.20;;;;;;5013586;28;20652;-52
2022/04/30 11:00:32;;;;;;;10.30;6.63;;;15.60;81.40;;;;;;5014146;28;20033;-51
2022/04/30 11:03:11;;;;;;;9.38;6.68;;;15.70;80.60;;;;;;5013200;28;20041;-49
2022/04/30 11:05:36;;;;;;;8.95;6.35;;;15.60;80.30;;;;;;5013256;28;20065;-54
2022/04/30 11:08:05;;;;;;;10.52;6.75;;;15.60;80.40;;;;;;5013566;28;20091;-51
2022/04/30 11:10:31;;;;;;;12.00;6.75;;;15.60;80.50;;;;;;5013560;28;20132;-50
2022/04/30 11:13:06;;;;;;;19.90;6.85;;;15.60;79.70;;;;;;5012649;28;20075;-51
2022/04/30 11:15:33;;;;;;;9.40;6.65;;;15.60;80.10;;;;;;5013484;28;20026;-51
2022/04/30 11:17:59;;;;;;;9.43;6.88;;;15.60;79.40;;;;;;5014074;28;20033;-53
2022/04/30 11:20:26;;;;;;;8.60;6.10;;;15.70;79.30;;;;;;5013609;28;20044;-56
2022/04/30 11:22:57;;;;;;;9.38;7.25;;;15.50;79.40;;;;;;5013945;28;20124;-50
2022/04/30 11:25:34;;;;;;;12.07;7.68;;;15.60;78.60;;;;;;5005985;28;20037;-48
2022/04/30 11:27:59;;;;;;;8.05;6.53;;;15.60;77.80;;;;;;5032534;28;20043;-52
2022/04/30 11:30:26;;;;;;;10.65;7.28;;;15.90;78.60;;;;;;4996622;28;20042;-55
2022/04/30 11:32:52;;;;;;;9.32;6.78;;;15.90;78.20;;;;;;4993330;28;20398;-48
2022/04/30 11:35:19;;;;;;;11.35;6.82;;;15.90;77.90;;;;;;5012130;28;20038;-52
2022/04/30 11:37:44;;;;;;;11.65;7.25;;;15.70;77.80;;;;;;5010243;28;20113;-49
2022/04/30 11:40:11;;;;;;;10.57;7.20;;;15.80;77.40;;;;;;5012441;28;20117;-52
2022/04/30 11:42:37;;;;;;;13.07;7.35;;;15.80;77.00;;;;;;5021578;28;20047;-54
2022/04/30 11:45:04;;;;;;;8.95;6.53;;;15.80;77.30;;;;;;5014716;28;20042;-50
2022/04/30 11:47:31;;;;;;;11.20;8.15;;;16.00;77.30;;;;;;5012717;28;20053;-56
2022/04/30 11:50:08;;;;;;;11.10;7.45;;;16.10;76.00;;;;;;5011445;28;20034;-55
2022/04/30 11:52:34;;;;;;;10.45;6.97;;;16.10;74.70;;;;;;5012193;28;20042;-52
2022/04/30 11:55:02;;;;;;;10.05;6.90;;;16.10;75.80;;;;;;5010892;28;20145;-54
2022/04/30 11:57:28;;;;;;;11.77;6.93;;;16.20;75.70;;;;;;5012862;28;20142;-54
2022/04/30 11:59:55;;;;;;;12.07;6.97;;;16.10;76.30;;;;;;5002837;28;20042;-47
2022/04/30 12:02:21;;;;;;;9.40;6.40;;;16.20;76.30;;;;;;5009881;28;20022;-51
2022/04/30 12:04:48;;;;;;;14.50;8.18;;;16.40;76.50;;;;;;5009252;28;20605;-55
2022/04/30 12:07:14;;;;;;;9.50;6.70;;;16.50;75.00;;;;;;5011185;28;20053;-53
2022/04/30 12:09:50;;;;;;;10.63;7.75;;;16.50;75.30;;;;;;5012734;28;20049;-50
2022/04/30 12:12:17;;;;;;;11.50;7.50;;;16.50;74.80;;;;;;5013996;28;20117;-53
2022/04/30 12:14:45;;;;;;;9.63;7.38;;;16.50;73.60;;;;;;5011965;28;20040;-52
2022/04/30 12:17:11;;;;;;;12.30;7.18;;;16.90;73.90;;;;;;5012861;28;20091;-52
2022/04/30 12:25:09;;;;;;;10.98;6.97;;;17.60;72.90;;;;;;5008847;28;20465;-57
2022/04/30 12:27:36;;;;;;;11.25;6.82;;;17.80;73.60;;;;;;5009813;28;20054;-60
2022/04/30 12:30:14;;;;;;;11.18;6.97;;;18.00;72.60;;;;;;5010876;28;20383;-52
2022/04/30 12:33:09;;;;;;;8.77;7.32;;;18.00;71.70;;;;;;5012270;28;20022;-51
2022/04/30 12:35:38;;;;;;;11.18;6.75;;;18.00;71.80;;;;;;5010334;28;20038;-52
2022/04/30 12:38:14;;;;;;;9.05;6.95;;;18.20;71.90;;;;;;4994596;28;20039;-56
2022/04/30 12:40:44;;;;;;;10.52;6.00;;;18.30;72.10;;;;;;4999683;28;20086;-52
2022/04/30 12:43:11;;;;;;;9.98;7.32;;;18.70;72.30;;;;;;5013971;28;20103;-50
2022/04/30 12:45:39;;;;;;;16.55;7.18;;;18.70;70.60;;;;;;5011651;28;20041;-54
2022/04/30 12:48:06;;;;;;;10.60;7.15;;;18.50;70.60;;;;;;5011791;28;20034;-53
2022/04/30 12:50:32;;;;;;;8.18;6.75;;;18.20;70.70;;;;;;5008917;28;20040;-53
2022/04/30 12:52:58;;;;;;;11.90;7.55;;;18.40;70.80;;;;;;5012109;28;20026;-53
2022/04/30 12:55:24;;;;;;;15.25;9.57;;;18.50;70.40;;;;;;5007393;28;20991;-53
2022/04/30 12:57:50;;;;;;;9.30;7.35;;;18.70;72.10;;;;;;5008783;28;20046;-50
2022/04/30 13:00:17;;;;;;;9.80;6.90;;;18.60;69.70;;;;;;5008055;28;20037;-49
2022/04/30 13:02:43;;;;;;;9.93;6.95;;;18.60;68.70;;;;;;5008309;28;20406;-53
2022/04/30 13:05:10;;;;;;;11.98;7.40;;;18.60;68.90;;;;;;5011757;28;20030;-53
2022/04/30 13:07:43;;;;;;;10.10;6.88;;;18.80;68.20;;;;;;5014431;28;20099;-53
2022/04/30 13:15:41;;;;;;;7.22;6.40;;;18.90;67.90;;;;;;5009074;28;20482;-55
2022/04/30 13:18:07;;;;;;;9.52;7.28;;;19.00;67.80;;;;;;5010725;28;20433;-51
2022/04/30 13:20:34;;;;;;;9.25;7.07;;;19.10;67.40;;;;;;5010832;28;20057;-56